Date,TemperatureHighF,TemperatureAvgF,TemperatureLowF,DewpointHighF,DewpointAvgF,DewpointLowF,HumidityHigh,HumidityAvg,HumidityLow,PressureMaxIn,PressureMinIn,WindSpeedMaxMPH,WindSpeedAvgMPH,GustSpeedMaxMPH,PrecipitationSumIn
2013-1-1,42.0,39.2,34.0,30.0,29.0,26.0,78,67,61,0.00,40.00,5,1,12,0.00
2013-1-2,36.0,32.0,27.0,28.0,19.5,13.0,75,60,46,0.00,40.00,7,2,15,0.00
2013-1-3,38.0,29.1,21.0,22.0,19.1,15.0,92,68,46,0.00,40.00,8,1,15,0.00
2013-1-4,41.0,35.4,30.0,25.0,22.4,21.0,72,59,50,0.00,40.00,12,5,25,0.00
2013-1-5,42.0,35.7,31.0,28.0,23.7,20.0,82,62,50,0.00,40.00,16,-4,27,0.00
2013-1-6,50.0,39.1,28.0,35.0,28.9,27.0,99,69,43,0.00,40.00,6,-13,12,0.00
2013-1-7,44.0,38.6,26.0,31.0,27.7,24.0,99,66,53,0.00,40.00,8,3,17,0.00
2013-1-8,50.0,33.9,24.0,34.0,28.8,24.0,99,84,48,0.00,40.00,4,1,10,0.00
2013-1-9,44.0,35.3,26.0,42.0,33.6,26.0,99,94,66,0.00,40.00,3,1,10,0.00
2013-1-10,52.0,44.8,38.0,33.0,29.2,25.0,80,55,42,0.00,40.00,15,2,24,0.00
2013-1-11,46.0,39.9,35.0,42.0,37.0,33.0,99,90,65,0.00,40.00,3,1,8,0.01
2013-1-12,55.0,44.9,40.0,49.0,43.5,40.0,99,95,77,0.00,40.00,2,0,8,0.00
2013-1-13,54.0,48.8,40.0,54.0,48.5,40.0,99,99,99,0.00,40.00,4,0,7,0.00
2013-1-14,57.0,51.0,39.0,56.0,44.8,33.0,99,81,54,0.00,40.00,7,2,17,0.06
2013-1-15,41.0,39.0,34.0,40.0,36.2,33.0,99,91,77,0.00,40.00,6,1,12,0.22
2013-1-16,40.0,36.0,33.0,39.0,35.6,33.0,99,99,99,0.00,40.00,6,1,12,0.21
2013-1-17,44.0,40.5,36.0,41.0,30.2,22.0,99,69,45,0.00,40.00,7,2,18,0.00
2013-1-18,38.0,32.7,28.0,31.0,17.4,9.0,81,55,37,0.00,40.00,10,4,24,0.00
2013-1-19,54.0,39.8,28.0,30.0,27.3,19.0,94,64,38,0.00,40.00,4,2,12,0.00
2013-1-20,55.0,41.9,32.0,35.0,25.0,14.0,84,55,26,0.00,40.00,17,4,32,0.00
2013-1-21,41.0,32.6,27.0,26.0,20.2,13.0,70,60,52,0.00,40.00,12,3,29,0.00
2013-1-22,28.0,19.3,15.0,13.0,3.2,0.0,58,50,42,0.00,40.00,14,8,29,0.00
2013-1-23,25.0,18.8,13.0,10.0,4.0,2.0,65,53,43,0.00,40.00,11,4,20,0.00
2013-1-24,25.0,19.1,16.0,18.0,11.7,4.0,99,76,42,0.00,40.00,9,2,18,0.12
2013-1-25,24.0,18.9,15.0,20.0,11.3,4.0,99,74,52,0.00,40.00,4,0,9,0.13
2013-1-26,33.0,25.5,20.0,26.0,22.0,19.0,99,88,64,0.00,40.00,6,1,12,0.00
2013-1-27,36.0,28.9,21.0,25.0,20.8,18.0,98,73,51,0.00,40.00,6,1,10,0.00
2013-1-28,39.0,33.9,28.0,38.0,32.6,25.0,99,95,78,0.00,40.00,4,1,11,0.05
2013-1-29,67.0,51.3,38.0,53.0,46.2,37.0,99,85,59,0.00,40.00,3,1,9,0.00
2013-1-30,70.0,56.8,46.0,62.0,55.4,45.0,99,95,75,0.00,40.00,7,2,32,2.62
2013-1-31,55.0,37.9,30.0,55.0,20.4,11.0,99,50,41,0.00,40.00,18,8,36,0.16
2013-2-1,32.0,25.8,19.0,27.0,10.8,4.0,99,54,41,0.00,40.00,19,7,31,0.25
2013-2-2,27.0,22.0,15.0,27.0,14.2,5.0,99,74,54,0.00,40.00,6,1,14,0.08
2013-2-3,35.0,27.9,22.0,31.0,25.5,18.0,99,92,62,0.00,40.00,9,1,19,0.04
2013-2-4,37.0,30.1,25.0,22.0,15.2,11.0,72,54,43,0.00,40.00,13,-3,24,0.00
2013-2-5,39.0,33.4,31.0,35.0,29.7,22.0,99,86,65,0.00,40.00,4,1,7,0.00
2013-2-6,40.0,35.2,28.0,35.0,26.9,21.0,99,74,53,0.00,40.00,9,-11,17,0.00
2013-2-7,39.0,32.2,24.0,30.0,25.1,22.0,96,77,55,0.00,40.00,6,1,12,0.00
2013-2-8,40.0,35.4,31.0,38.0,32.4,23.0,99,90,63,0.00,40.00,15,4,32,0.14
2013-2-9,39.0,32.0,25.0,23.0,17.6,14.0,75,56,38,0.00,40.00,15,6,35,0.00
2013-2-10,45.0,32.3,18.0,26.0,18.3,15.0,99,62,31,0.00,40.00,4,1,12,0.00
2013-2-11,55.0,43.8,35.0,54.0,40.2,20.0,99,89,33,0.00,40.00,13,2,29,0.13
2013-2-12,54.0,46.3,34.0,33.0,29.3,26.0,88,53,39,0.00,40.00,12,5,28,0.00
2013-2-13,44.0,34.6,28.0,36.0,30.9,28.0,99,88,57,0.00,40.00,6,1,14,1.14
2013-2-14,48.0,38.0,31.0,34.0,30.8,27.0,99,78,50,0.00,40.00,7,1,12,0.00
2013-2-15,56.0,39.5,29.0,41.0,33.7,28.0,99,84,42,0.00,40.00,9,1,19,0.08
2013-2-16,38.0,34.3,30.0,36.0,28.7,18.0,99,82,56,0.00,40.00,7,2,17,0.00
2013-2-17,31.0,27.2,24.0,19.0,13.9,9.0,68,58,45,0.00,40.00,15,9,32,0.00
2013-2-18,42.0,30.0,20.0,15.0,11.2,7.0,61,46,33,0.00,40.00,8,3,21,0.00
2013-2-19,46.0,38.3,30.0,44.0,30.4,15.0,99,75,45,0.00,40.00,13,3,25,0.01
2013-2-20,37.0,30.6,26.0,22.0,15.8,11.0,60,54,49,0.00,40.00,17,9,31,0.00
2013-2-21,37.0,29.3,24.0,24.0,16.0,12.0,86,58,47,0.00,40.00,12,6,25,0.00
2013-2-22,34.0,30.9,27.0,32.0,26.4,21.0,99,84,67,0.00,40.00,6,1,11,0.00
2013-2-23,45.0,37.2,32.0,45.0,37.0,31.0,99,99,99,0.00,40.00,6,-6,9,0.00
2013-2-24,48.0,39.8,31.0,43.0,31.3,22.0,99,75,44,0.00,40.00,11,4,24,0.00
2013-2-25,47.0,36.3,26.0,29.0,25.4,22.0,95,67,44,0.00,40.00,5,1,11,0.00
2013-2-26,42.0,35.1,27.0,41.0,34.4,27.0,99,97,73,0.00,40.00,9,3,22,0.52
2013-2-27,56.0,44.7,38.0,47.0,37.3,32.0,99,78,48,0.00,40.00,12,5,22,0.00
2013-2-28,46.0,41.9,37.0,39.0,32.7,28.0,90,70,53,0.00,40.00,12,5,22,0.00
2013-3-1,44.0,39.9,34.0,35.0,31.6,26.0,85,72,59,0.00,40.00,14,6,22,0.00
2013-3-2,37.0,33.5,31.0,27.0,25.0,22.0,77,71,59,0.00,40.00,9,4,17,0.00
2013-3-3,39.0,33.3,30.0,26.0,23.2,20.0,82,67,54,0.00,40.00,11,6,24,0.00
2013-3-4,42.0,33.8,28.0,23.0,20.6,17.0,67,59,47,0.00,40.00,13,6,27,0.00
2013-3-5,49.0,38.9,27.0,30.0,24.0,20.0,90,58,34,0.00,40.00,7,2,14,0.00
2013-3-6,40.0,35.5,33.0,38.0,34.6,30.0,99,97,66,0.00,40.00,9,4,26,2.66
2013-3-7,47.0,38.2,31.0,34.0,30.1,27.0,99,75,47,0.00,40.00,11,3,23,0.00
2013-3-12,55.0,48.8,42.0,53.0,40.0,31.0,99,73,59,0.00,40.00,14,-18,24,0.07
2013-3-13,50.0,41.0,32.0,36.0,28.1,21.0,98,62,36,0.00,40.00,15,7,26,0.00
2013-3-14,43.0,36.6,32.0,23.0,20.2,18.0,66,52,38,0.00,40.00,17,9,35,0.00
2013-3-15,57.0,44.5,29.0,36.0,27.9,20.0,90,54,36,0.00,40.00,9,3,21,0.00
2013-3-16,50.0,41.8,36.0,42.0,38.3,35.0,99,88,61,0.00,40.00,8,2,19,0.00
2013-3-17,42.0,37.5,35.0,36.0,30.7,24.0,99,78,53,0.00,40.00,6,2,15,0.00
2013-3-18,38.0,35.0,33.0,35.0,28.0,22.0,99,77,56,0.00,40.00,5,2,15,0.07
2013-3-19,58.0,43.0,33.0,44.0,29.1,13.0,99,67,22,0.00,40.00,16,5,37,0.00
2013-3-20,52.0,42.4,34.0,27.0,18.6,15.0,63,39,28,0.00,40.00,12,6,35,0.00
2013-3-21,38.0,33.2,29.0,27.0,17.3,11.0,68,52,42,0.00,40.00,14,6,26,0.00
2013-3-22,45.0,35.0,26.0,23.0,19.5,13.0,71,54,42,0.00,40.00,12,5,26,0.00
2013-3-23,52.0,38.5,26.0,31.0,24.4,22.0,99,61,34,0.00,40.00,13,3,20,0.00
2013-3-24,44.0,36.5,28.0,33.0,26.5,23.0,94,69,48,0.00,40.00,5,1,12,0.00
2013-3-25,37.0,34.5,32.0,36.0,33.9,32.0,99,98,88,0.00,40.00,5,1,9,2.47
2013-3-26,51.0,40.6,31.0,41.0,30.5,25.0,99,71,38,0.00,40.00,12,3,26,0.00
2013-3-27,48.0,42.6,38.0,33.0,29.4,26.0,75,60,44,0.00,40.00,12,-8,31,0.00
2013-3-28,48.0,42.8,38.0,34.0,31.2,27.0,79,64,46,0.00,40.00,12,6,22,0.00
2013-3-29,56.0,46.6,38.0,35.0,31.4,28.0,77,57,36,0.00,40.00,9,3,20,0.00
2013-3-30,60.0,45.4,32.0,39.0,29.3,21.0,99,61,26,0.00,40.00,7,2,15,0.00
2013-3-31,49.0,42.5,35.0,47.0,40.0,-99.9,99,94,73,0.00,40.00,3,1,7,0.21
2013-4-1,61.0,46.6,36.0,46.0,36.1,21.0,99,71,42,0.00,40.00,19,5,32,0.00
2013-4-2,47.0,37.7,28.0,27.0,20.7,16.0,90,53,32,0.00,40.00,10,4,21,0.00
2013-4-3,49.0,37.2,26.0,27.0,20.9,14.0,99,57,28,0.00,40.00,11,4,26,0.00
2013-4-4,52.0,38.0,24.0,26.0,21.0,16.0,90,56,29,0.00,40.00,6,2,14,0.00
2013-4-5,65.0,49.8,37.0,38.0,31.5,21.0,99,58,26,0.00,40.00,11,-54,19,0.00
2013-4-6,59.0,46.1,32.0,31.0,24.8,19.0,84,46,29,0.00,40.00,6,2,14,0.00
2013-4-7,71.0,55.7,40.0,46.0,38.0,21.0,77,53,39,0.00,40.00,7,3,20,0.00
2013-4-8,83.0,67.8,50.0,53.0,49.6,45.0,96,57,34,0.00,40.00,5,-83,12,0.00
2013-4-9,86.0,72.4,54.0,60.0,55.8,50.0,99,59,38,0.00,40.00,7,-27,17,0.00
2013-4-10,92.0,76.6,59.0,64.0,59.9,55.0,97,59,38,0.00,40.00,14,2,26,0.00
2013-4-11,88.0,71.5,58.0,64.0,60.9,57.0,99,73,41,0.00,40.00,11,-62,22,0.00
2013-4-12,63.0,54.9,51.0,60.0,54.2,50.0,99,98,88,0.00,40.00,9,3,19,0.30
2013-4-13,69.0,56.4,46.0,51.0,39.9,35.0,99,58,32,0.00,40.00,10,3,21,0.00
2013-4-14,67.0,54.2,40.0,48.0,38.7,34.0,99,61,33,0.00,40.00,9,2,19,0.00
2013-4-15,64.0,56.4,52.0,56.0,51.2,47.0,99,84,63,0.00,40.00,4,1,12,0.00